Time;durP1;ratioP1;P1;durP2;ratioP2;P2;SDS_P1;SDS_P2;PMS_P1;PMS_P2;Temp;Humidity;BMP_temperature;BMP_pressure;BME280_temperature;BME280_humidity;BME280_pressure;Samples;Min_cycle;Max_cycle;Signal;HPM_P1;HPM_P2
2022/01/07 00:00:46;;;;;;;5.75;3.47;;;2.90;99.90;;;;;;5100377;28;20198;-77
2022/01/07 00:03:14;;;;;;;1.60;1.50;;;2.90;99.90;;;;;;5098426;28;20287;-78
2022/01/07 00:05:41;;;;;;;3.60;1.58;;;2.90;99.90;;;;;;5098342;28;20217;-78
2022/01/07 00:08:08;;;;;;;2.30;1.70;;;2.90;99.90;;;;;;5102290;28;20212;-77
2022/01/07 00:10:35;;;;;;;2.10;1.58;;;2.90;99.90;;;;;;5107384;28;20258;-77
2022/01/07 00:13:03;;;;;;;3.13;1.50;;;2.90;99.90;;;;;;5104671;28;20269;-78
2022/01/07 00:15:30;;;;;;;1.90;1.73;;;2.90;99.90;;;;;;5106613;28;20213;-76
2022/01/07 00:17:59;;;;;;;3.45;1.73;;;3.00;99.90;;;;;;5094404;28;20257;-77
2022/01/07 00:20:26;;;;;;;2.80;2.05;;;3.00;99.90;;;;;;5097976;28;20200;-79
2022/01/07 00:22:53;;;;;;;3.88;1.60;;;3.00;99.90;;;;;;5094645;28;20280;-77
2022/01/07 00:25:22;;;;;;;2.42;1.70;;;2.90;99.90;;;;;;5098122;28;20841;-77
2022/01/07 00:27:49;;;;;;;4.15;2.10;;;2.90;99.90;;;;;;5102500;28;20197;-76
2022/01/07 00:30:18;;;;;;;1.98;1.70;;;2.90;99.90;;;;;;5091903;28;20197;-76
2022/01/07 00:32:45;;;;;;;1.90;1.80;;;2.80;99.90;;;;;;5099304;28;20253;-77
2022/01/07 00:35:13;;;;;;;5.88;2.80;;;2.80;99.90;;;;;;5097928;28;20232;-78
2022/01/07 00:37:40;;;;;;;1.90;1.35;;;2.80;99.90;;;;;;5103799;28;20212;-77
2022/01/07 00:40:10;;;;;;;1.67;1.50;;;2.70;99.90;;;;;;5102754;28;20314;-78
2022/01/07 00:42:37;;;;;;;3.90;2.38;;;2.70;99.90;;;;;;5103131;28;20201;-79
2022/01/07 00:45:04;;;;;;;2.05;1.42;;;2.70;99.90;;;;;;5094995;28;20266;-77
2022/01/07 00:47:32;;;;;;;2.63;2.00;;;2.70;99.90;;;;;;5096837;28;20220;-76
2022/01/07 00:49:59;;;;;;;4.63;2.17;;;2.70;99.90;;;;;;5102660;28;20298;-77
2022/01/07 00:52:26;;;;;;;2.17;1.90;;;2.70;99.90;;;;;;5094380;28;20205;-78
2022/01/07 00:54:53;;;;;;;2.65;2.45;;;2.60;99.90;;;;;;5099714;28;20224;-78
2022/01/07 00:57:20;;;;;;;2.67;1.77;;;2.70;99.90;;;;;;5099084;28;20209;-77
2022/01/07 00:59:46;;;;;;;3.50;2.75;;;2.60;99.90;;;;;;5096283;28;20280;-78
2022/01/07 01:02:14;;;;;;;3.35;3.05;;;2.60;99.90;;;;;;5106149;28;20215;-78
2022/01/07 01:04:42;;;;;;;2.22;2.13;;;2.60;99.90;;;;;;5102010;28;20204;-77
2022/01/07 01:07:09;;;;;;;13.80;2.45;;;2.60;99.90;;;;;;5107244;28;20220;-77
2022/01/07 01:09:35;;;;;;;2.78;2.40;;;2.60;99.90;;;;;;5106389;28;20197;-77
2022/01/07 01:12:04;;;;;;;3.85;1.40;;;2.60;99.90;;;;;;5097361;28;20205;-77
2022/01/07 01:14:30;;;;;;;4.20;2.60;;;2.60;99.90;;;;;;5106983;28;20211;-79
2022/01/07 01:16:59;;;;;;;4.15;2.33;;;2.60;99.90;;;;;;5098715;28;20228;-77
2022/01/07 01:19:26;;;;;;;6.38;3.30;;;2.60;99.90;;;;;;5103171;28;20248;-76
2022/01/07 01:21:54;;;;;;;2.40;1.90;;;2.60;99.90;;;;;;5101904;28;20216;-78
2022/01/07 01:24:21;;;;;;;2.28;2.08;;;2.60;99.90;;;;;;5110258;28;20222;-78
2022/01/07 01:26:48;;;;;;;2.92;2.28;;;2.60;99.90;;;;;;5095840;28;20232;-77
2022/01/07 01:29:15;;;;;;;2.85;2.05;;;2.60;99.90;;;;;;5099612;28;20245;-77
2022/01/07 01:31:42;;;;;;;3.58;2.80;;;2.60;99.90;;;;;;5096895;28;20190;-77
2022/01/07 01:34:08;;;;;;;2.90;2.72;;;2.60;99.90;;;;;;5102338;28;20196;-78
2022/01/07 01:36:35;;;;;;;5.22;3.05;;;2.60;99.90;;;;;;5101044;28;20216;-78
2022/01/07 01:39:04;;;;;;;2.88;2.65;;;2.60;99.90;;;;;;5099370;28;20201;-77
2022/01/07 01:41:30;;;;;;;4.50;2.38;;;2.60;99.90;;;;;;5096232;28;20329;-78
2022/01/07 01:43:57;;;;;;;4.00;2.80;;;2.60;99.90;;;;;;5102730;28;20205;-78
2022/01/07 01:46:25;;;;;;;9.32;3.45;;;2.70;99.90;;;;;;5102846;28;20303;-77
2022/01/07 01:48:52;;;;;;;3.08;2.10;;;2.70;99.90;;;;;;5101839;28;20188;-78
2022/01/07 01:51:20;;;;;;;2.00;1.90;;;2.70;99.90;;;;;;5098797;28;20254;-76
2022/01/07 01:53:47;;;;;;;8.52;2.40;;;2.70;99.90;;;;;;5104042;28;20223;-76
2022/01/07 01:56:15;;;;;;;6.03;2.67;;;2.70;99.90;;;;;;5087492;28;20328;-78
2022/01/07 01:58:43;;;;;;;4.18;2.22;;;2.70;99.90;;;;;;5089354;28;20289;-77
2022/01/07 02:01:10;;;;;;;4.25;3.20;;;2.80;99.90;;;;;;5103940;28;20204;-77
2022/01/07 02:03:36;;;;;;;3.03;2.10;;;2.80;99.90;;;;;;5103207;28;20205;-78
2022/01/07 02:06:03;;;;;;;3.30;2.45;;;2.80;99.90;;;;;;5099225;28;20364;-77
2022/01/07 02:08:30;;;;;;;2.95;2.40;;;2.80;99.90;;;;;;5095343;28;20251;-77
2022/01/07 02:10:58;;;;;;;4.30;2.45;;;2.80;99.90;;;;;;5102738;28;20203;-77
2022/01/07 02:13:26;;;;;;;2.70;2.50;;;2.80;99.90;;;;;;5102848;28;20390;-77
2022/01/07 02:15:53;;;;;;;3.65;3.40;;;2.80;99.90;;;;;;5102686;28;20293;-78
2022/01/07 02:18:20;;;;;;;8.93;3.13;;;2.80;99.90;;;;;;5102154;28;20188;-78
2022/01/07 02:20:48;;;;;;;8.60;2.78;;;2.80;99.90;;;;;;5104384;28;20234;-77
2022/01/07 02:23:16;;;;;;;2.58;2.30;;;2.80;99.90;;;;;;5101287;28;20206;-77
2022/01/07 02:25:44;;;;;;;4.65;2.88;;;2.80;99.90;;;;;;5100696;28;20270;-76
2022/01/07 02:28:12;;;;;;;4.55;2.20;;;2.90;99.90;;;;;;5101537;28;20192;-77
2022/01/07 02:30:39;;;;;;;3.80;1.40;;;2.90;99.90;;;;;;5099404;28;20278;-77
2022/01/07 02:33:06;;;;;;;2.13;1.88;;;2.80;99.90;;;;;;5095804;28;20299;-77
2022/01/07 02:35:35;;;;;;;3.10;2.75;;;2.80;99.90;;;;;;5095204;28;20269;-78
2022/01/07 02:38:04;;;;;;;3.03;1.90;;;2.90;99.90;;;;;;5095648;28;20207;-77
2022/01/07 02:40:31;;;;;;;3.03;2.60;;;2.90;99.90;;;;;;5095013;28;20294;-78
2022/01/07 02:42:59;;;;;;;2.42;2.22;;;2.90;99.90;;;;;;5101611;28;20208;-79
2022/01/07 02:45:26;;;;;;;4.80;2.63;;;3.00;99.90;;;;;;5091483;28;20861;-77
2022/01/07 02:47:54;;;;;;;3.00;2.40;;;3.00;99.90;;;;;;5095241;28;20211;-77
2022/01/07 02:50:24;;;;;;;2.65;1.50;;;3.00;99.90;;;;;;5102237;28;20269;-77
2022/01/07 02:52:52;;;;;;;2.55;1.60;;;3.00;99.90;;;;;;5092577;28;20255;-76
2022/01/07 02:55:21;;;;;;;1.50;1.40;;;3.10;99.90;;;;;;5092831;28;20224;-77
2022/01/07 02:57:48;;;;;;;2.22;1.52;;;3.10;99.90;;;;;;5094119;22;20229;-73
2022/01/07 03:00:17;;;;;;;4.30;2.38;;;3.10;99.90;;;;;;5058448;28;20197;-74
2022/01/07 03:02:44;;;;;;;3.42;1.58;;;3.00;99.90;;;;;;5051231;28;20206;-73
2022/01/07 03:05:12;;;;;;;1.95;1.85;;;3.00;99.90;;;;;;5055791;28;20206;-74
2022/01/07 03:07:39;;;;;;;1.80;1.58;;;2.90;99.90;;;;;;5063204;28;20213;-74
2022/01/07 03:10:07;;;;;;;3.25;1.88;;;2.80;99.90;;;;;;5061735;28;20765;-74
2022/01/07 03:12:37;;;;;;;4.30;1.45;;;2.70;99.90;;;;;;5060352;28;20243;-74
2022/01/07 03:15:05;;;;;;;6.07;1.45;;;2.60;99.90;;;;;;5061353;28;20209;-74
2022/01/07 03:17:31;;;;;;;1.20;1.10;;;2.50;99.90;;;;;;5059881;28;20217;-74
2022/01/07 03:19:58;;;;;;;5.43;2.53;;;2.40;99.90;;;;;;5065479;28;20204;-74
2022/01/07 03:22:25;;;;;;;1.55;1.45;;;2.40;99.90;;;;;;5062031;28;20760;-74
2022/01/07 03:24:51;;;;;;;5.50;1.95;;;2.30;99.90;;;;;;5061069;28;20259;-75
2022/01/07 03:27:18;;;;;;;1.70;1.20;;;2.30;99.90;;;;;;5067331;28;20225;-74
2022/01/07 03:29:46;;;;;;;2.40;1.48;;;2.20;99.90;;;;;;5066603;28;20201;-73
2022/01/07 03:32:13;;;;;;;2.03;1.90;;;2.20;99.90;;;;;;5062401;28;20255;-73
2022/01/07 03:34:39;;;;;;;1.10;1.00;;;2.30;99.90;;;;;;5060777;28;20197;-73
2022/01/07 03:37:06;;;;;;;1.50;1.40;;;2.30;99.90;;;;;;5066329;28;20703;-73
2022/01/07 03:39:33;;;;;;;1.48;1.38;;;2.30;99.90;;;;;;5063917;28;20205;-74
2022/01/07 03:41:59;;;;;;;2.50;1.40;;;2.20;99.90;;;;;;5068772;28;20243;-73
2022/01/07 03:44:26;;;;;;;4.72;2.65;;;2.30;99.90;;;;;;5064116;28;20836;-75
2022/01/07 03:46:54;;;;;;;1.50;1.40;;;2.30;99.90;;;;;;5065228;28;20266;-74
2022/01/07 03:49:21;;;;;;;1.55;1.33;;;2.30;99.90;;;;;;5065930;28;20202;-74
2022/01/07 03:51:47;;;;;;;1.42;1.23;;;2.30;99.90;;;;;;5064569;28;20264;-74
2022/01/07 03:54:14;;;;;;;2.72;2.15;;;2.30;99.90;;;;;;5067083;28;20240;-74
2022/01/07 03:56:41;;;;;;;2.25;2.05;;;2.30;99.90;;;;;;5064127;28;20214;-74
2022/01/07 03:59:07;;;;;;;1.83;1.55;;;2.40;99.90;;;;;;5068802;28;20205;-74
2022/01/07 04:01:34;;;;;;;5.38;1.67;;;2.40;99.90;;;;;;5061653;28;20255;-74
2022/01/07 04:04:02;;;;;;;2.05;1.83;;;2.40;99.90;;;;;;5068426;28;20216;-74
2022/01/07 04:06:29;;;;;;;3.47;2.78;;;2.40;99.90;;;;;;5066121;28;20250;-74
2022/01/07 04:08:55;;;;;;;2.05;1.85;;;2.40;99.90;;;;;;5070033;28;20225;-74
2022/01/07 04:11:22;;;;;;;2.03;1.90;;;2.40;99.90;;;;;;5068462;28;20206;-74
2022/01/07 04:13:49;;;;;;;2.47;1.20;;;2.40;99.90;;;;;;5065649;28;20209;-74
2022/01/07 04:16:16;;;;;;;1.92;1.67;;;2.40;99.90;;;;;;5069858;28;20276;-74
2022/01/07 04:18:43;;;;;;;4.25;2.00;;;2.40;99.90;;;;;;5067765;28;20217;-74
2022/01/07 04:21:11;;;;;;;3.40;2.67;;;2.40;99.90;;;;;;5069526;28;20428;-74
2022/01/07 04:23:38;;;;;;;2.20;2.00;;;2.40;99.90;;;;;;5064412;28;20855;-74
2022/01/07 04:26:04;;;;;;;2.00;1.90;;;2.40;99.90;;;;;;5065993;28;20197;-74
2022/01/07 04:28:31;;;;;;;1.05;1.05;;;2.40;99.90;;;;;;5063920;28;20271;-74
2022/01/07 04:30:58;;;;;;;7.07;2.28;;;2.40;99.90;;;;;;5066713;28;20198;-72
2022/01/07 04:33:27;;;;;;;2.47;1.83;;;2.50;99.90;;;;;;5066613;28;20209;-74
2022/01/07 04:35:55;;;;;;;1.63;1.52;;;2.50;99.90;;;;;;5065629;28;20225;-73
2022/01/07 04:38:23;;;;;;;2.25;1.38;;;2.50;99.90;;;;;;5063150;28;20221;-72
2022/01/07 04:40:50;;;;;;;1.92;1.50;;;2.50;99.90;;;;;;5066574;28;20193;-74
2022/01/07 04:43:18;;;;;;;2.28;1.67;;;2.50;99.90;;;;;;5066317;28;20205;-74
2022/01/07 04:45:45;;;;;;;1.90;1.50;;;2.50;99.90;;;;;;5069263;28;20547;-73
2022/01/07 04:48:12;;;;;;;3.00;1.45;;;2.50;99.90;;;;;;5069611;28;20710;-74
2022/01/07 04:50:39;;;;;;;2.13;1.40;;;2.50;99.90;;;;;;5069754;28;20194;-74
2022/01/07 04:53:06;;;;;;;2.95;2.70;;;2.50;99.90;;;;;;5063610;28;20631;-73
2022/01/07 04:55:37;;;;;;;1.38;1.27;;;2.50;99.90;;;;;;5065637;28;20201;-73
2022/01/07 04:58:05;;;;;;;4.05;1.60;;;2.50;99.90;;;;;;5061921;28;20237;-73
2022/01/07 05:00:32;;;;;;;2.30;1.45;;;2.50;99.90;;;;;;5061457;28;20808;-74
2022/01/07 05:02:58;;;;;;;3.60;1.50;;;2.50;99.90;;;;;;5068862;28;20198;-74
2022/01/07 05:05:25;;;;;;;1.70;1.60;;;2.50;99.90;;;;;;5066871;28;20205;-74
2022/01/07 05:07:52;;;;;;;8.43;2.50;;;2.50;99.90;;;;;;5064935;28;20757;-73
2022/01/07 05:10:18;;;;;;;1.70;1.60;;;2.50;99.90;;;;;;5067265;28;20201;-74
2022/01/07 05:12:46;;;;;;;1.83;1.48;;;2.50;99.90;;;;;;5069640;28;20342;-73
2022/01/07 05:15:15;;;;;;;3.42;1.80;;;2.50;99.90;;;;;;5069786;28;20205;-73
2022/01/07 05:17:41;;;;;;;1.58;1.20;;;2.50;99.90;;;;;;5066240;28;20229;-73
2022/01/07 05:20:09;;;;;;;3.95;2.55;;;2.50;99.90;;;;;;5069690;28;20262;-73
2022/01/07 05:22:36;;;;;;;2.05;1.77;;;2.50;99.90;;;;;;5070413;28;20209;-73
2022/01/07 05:25:05;;;;;;;2.70;2.50;;;2.60;99.90;;;;;;5069271;28;20209;-74
2022/01/07 05:27:32;;;;;;;2.50;1.70;;;2.60;99.90;;;;;;5069860;28;20221;-73
2022/01/07 05:30:00;;;;;;;2.55;1.90;;;2.60;99.90;;;;;;5068272;28;20255;-73
2022/01/07 05:32:27;;;;;;;4.32;2.08;;;2.60;99.90;;;;;;5070259;28;20205;-73
2022/01/07 05:34:53;;;;;;;2.45;2.17;;;2.70;99.90;;;;;;5069588;28;20198;-74
2022/01/07 05:37:20;;;;;;;1.60;1.50;;;2.70;99.90;;;;;;5070163;28;20233;-73
2022/01/07 05:39:47;;;;;;;4.72;1.90;;;2.70;99.90;;;;;;5068626;28;20251;-73
2022/01/07 05:42:13;;;;;;;1.20;1.00;;;2.80;99.90;;;;;;5069335;28;20201;-74
2022/01/07 05:44:41;;;;;;;2.40;1.42;;;2.80;99.90;;;;;;5069066;28;20205;-73
2022/01/07 05:47:09;;;;;;;1.55;1.42;;;2.90;99.90;;;;;;5068094;28;20768;-74
2022/01/07 05:49:36;;;;;;;1.23;1.13;;;2.90;99.90;;;;;;5057817;28;20201;-73
2022/01/07 05:52:02;;;;;;;2.42;2.30;;;2.90;99.90;;;;;;5066127;28;20270;-73
2022/01/07 05:54:29;;;;;;;2.95;1.80;;;3.00;99.90;;;;;;5066475;28;20235;-74
2022/01/07 05:56:56;;;;;;;2.70;1.90;;;3.10;99.90;;;;;;5063834;28;20237;-73
2022/01/07 05:59:22;;;;;;;1.63;1.13;;;3.10;99.90;;;;;;5061636;28;20247;-72
2022/01/07 06:01:49;;;;;;;1.52;1.38;;;3.10;99.90;;;;;;5067748;28;20330;-73
2022/01/07 06:04:17;;;;;;;1.13;1.02;;;3.20;99.90;;;;;;5066059;28;20205;-73
2022/01/07 06:06:44;;;;;;;1.65;1.55;;;3.10;99.90;;;;;;5066753;28;20189;-75
2022/01/07 06:09:10;;;;;;;1.15;1.05;;;3.10;99.90;;;;;;5066555;28;20204;-73
2022/01/07 06:11:37;;;;;;;1.23;1.00;;;3.10;99.90;;;;;;5068008;28;20231;-75
2022/01/07 06:14:04;;;;;;;1.20;1.13;;;3.10;99.90;;;;;;5063574;28;20286;-74
2022/01/07 06:16:30;;;;;;;1.73;1.25;;;3.00;99.90;;;;;;5064734;28;20282;-75
2022/01/07 06:18:58;;;;;;;1.60;1.50;;;3.00;99.90;;;;;;5063789;28;20776;-73
2022/01/07 06:21:27;;;;;;;1.08;0.98;;;3.00;99.90;;;;;;5062652;28;20194;-74
2022/01/07 06:23:54;;;;;;;2.95;2.03;;;3.00;99.90;;;;;;5063743;28;20671;-74
2022/01/07 06:26:21;;;;;;;0.68;0.60;;;3.00;99.90;;;;;;5062493;28;20204;-73
2022/01/07 06:28:48;;;;;;;1.50;1.40;;;2.90;99.90;;;;;;5066524;28;20251;-73
2022/01/07 06:31:14;;;;;;;1.63;1.35;;;2.90;99.90;;;;;;5067619;28;20270;-73
2022/01/07 06:33:41;;;;;;;1.00;0.88;;;2.90;99.90;;;;;;5066289;28;20243;-74
2022/01/07 06:36:08;;;;;;;1.80;1.25;;;2.80;99.90;;;;;;5064794;28;20263;-76
2022/01/07 06:38:37;;;;;;;1.80;0.98;;;2.80;99.90;;;;;;5064833;28;20686;-73
2022/01/07 06:41:04;;;;;;;1.15;1.05;;;2.80;99.90;;;;;;5063163;28;20214;-73
2022/01/07 06:43:30;;;;;;;2.80;1.65;;;2.80;99.90;;;;;;5063877;28;20658;-74
2022/01/07 06:45:57;;;;;;;1.02;1.02;;;2.80;99.90;;;;;;5066150;28;20283;-73
2022/01/07 06:48:24;;;;;;;1.65;1.55;;;2.80;99.90;;;;;;5066846;28;20931;-74
2022/01/07 06:50:50;;;;;;;1.38;1.27;;;2.90;99.90;;;;;;5065178;28;20243;-75
2022/01/07 06:53:17;;;;;;;1.42;1.25;;;2.80;99.90;;;;;;5059951;28;20193;-74
2022/01/07 06:55:45;;;;;;;0.60;0.60;;;2.90;99.90;;;;;;5067986;28;20604;-74
2022/01/07 06:58:12;;;;;;;0.80;0.80;;;2.90;99.90;;;;;;5066796;28;20225;-74
2022/01/07 07:00:38;;;;;;;0.95;0.95;;;2.90;99.90;;;;;;5064437;28;20715;-74
2022/01/07 07:03:05;;;;;;;0.90;0.85;;;3.00;99.90;;;;;;5058569;28;20587;-74
2022/01/07 07:05:32;;;;;;;0.70;0.70;;;3.00;99.90;;;;;;5068294;28;20624;-74
2022/01/07 07:07:58;;;;;;;1.52;1.33;;;3.00;99.90;;;;;;5058313;28;20214;-74
2022/01/07 07:10:25;;;;;;;1.15;1.13;;;3.00;99.90;;;;;;5061697;28;20228;-74
2022/01/07 07:12:54;;;;;;;3.35;1.25;;;3.00;99.90;;;;;;5062899;28;20201;-74
2022/01/07 07:15:20;;;;;;;0.93;0.93;;;3.00;99.90;;;;;;5056957;28;20663;-73
2022/01/07 07:17:48;;;;;;;2.28;1.27;;;3.00;99.90;;;;;;5066766;28;20649;-72
2022/01/07 07:20:15;;;;;;;2.40;1.15;;;3.00;99.90;;;;;;5059708;28;20197;-71
2022/01/07 07:22:42;;;;;;;1.05;0.95;;;3.00;99.90;;;;;;5065630;28;20267;-72
2022/01/07 07:25:09;;;;;;;1.23;1.13;;;3.00;99.90;;;;;;5062838;28;20250;-72
2022/01/07 07:27:37;;;;;;;1.27;1.17;;;3.00;99.90;;;;;;5070538;28;20645;-71
2022/01/07 07:30:07;;;;;;;1.05;0.80;;;3.10;99.90;;;;;;5070686;28;20208;-72
2022/01/07 07:32:34;;;;;;;1.27;1.17;;;3.10;99.90;;;;;;5071528;28;20208;-72
2022/01/07 07:35:12;;;;;;;1.38;1.27;;;3.10;99.90;;;;;;5072080;28;20590;-71
2022/01/07 07:37:39;;;;;;;1.10;1.10;;;3.20;99.90;;;;;;5072087;28;20236;-71
2022/01/07 07:40:07;;;;;;;2.83;1.42;;;3.20;99.90;;;;;;5067924;28;20205;-71
2022/01/07 07:42:34;;;;;;;0.93;0.82;;;3.20;99.90;;;;;;5072097;28;20202;-72
2022/01/07 07:45:01;;;;;;;1.35;0.98;;;3.30;99.90;;;;;;5071329;28;20444;-70
2022/01/07 07:47:29;;;;;;;1.45;1.27;;;3.30;99.90;;;;;;5071209;28;20218;-71
2022/01/07 07:49:57;;;;;;;0.70;0.70;;;3.30;99.90;;;;;;5062436;28;20680;-72
2022/01/07 07:52:23;;;;;;;0.80;0.80;;;3.40;99.90;;;;;;5070997;28;20675;-72
2022/01/07 07:54:50;;;;;;;0.80;0.80;;;3.40;99.90;;;;;;5071405;28;20613;-70
2022/01/07 07:57:17;;;;;;;1.15;0.77;;;3.40;99.90;;;;;;5073637;28;20282;-69
2022/01/07 07:59:43;;;;;;;0.75;0.75;;;3.40;99.90;;;;;;5066883;28;20206;-69
2022/01/07 08:02:10;;;;;;;0.95;0.63;;;3.40;99.90;;;;;;5071324;28;20201;-69
2022/01/07 08:04:39;;;;;;;3.30;1.10;;;3.40;99.90;;;;;;5069757;28;20198;-70
2022/01/07 08:07:06;;;;;;;1.35;0.93;;;3.40;99.90;;;;;;5071130;28;20217;-70
2022/01/07 08:09:37;;;;;;;0.77;0.65;;;3.40;99.90;;;;;;5066917;28;20205;-70
2022/01/07 08:12:17;;;;;;;1.40;0.55;;;3.50;99.90;;;;;;5057958;28;20220;-73
2022/01/07 08:17:28;;;;;;;0.80;0.80;;;3.60;99.90;;;;;;5068234;28;20248;-73
2022/01/07 08:19:56;;;;;;;1.55;1.30;;;3.60;99.90;;;;;;5067841;28;20276;-71
2022/01/07 08:22:22;;;;;;;3.10;1.88;;;3.60;99.90;;;;;;5070592;28;20259;-70
2022/01/07 08:24:49;;;;;;;3.03;0.80;;;3.70;99.90;;;;;;5071542;28;20263;-72
2022/01/07 08:27:16;;;;;;;1.88;0.77;;;3.70;99.90;;;;;;5069907;28;20213;-71
2022/01/07 08:29:43;;;;;;;1.08;0.98;;;3.70;99.90;;;;;;5057761;28;20205;-72
2022/01/07 08:34:56;;;;;;;0.75;0.75;;;3.70;99.90;;;;;;5065660;28;20196;-72
2022/01/07 08:37:24;;;;;;;1.17;0.98;;;3.70;99.90;;;;;;5064763;28;20701;-71
2022/01/07 08:39:52;;;;;;;1.58;1.08;;;3.80;99.90;;;;;;5059049;28;20201;-71
2022/01/07 08:42:19;;;;;;;1.30;0.80;;;3.80;99.90;;;;;;5063060;28;20258;-74
2022/01/07 08:44:45;;;;;;;0.95;0.82;;;3.80;99.90;;;;;;5058260;28;20296;-73
2022/01/07 08:47:12;;;;;;;1.08;0.68;;;3.80;99.90;;;;;;5054581;28;20658;-73
2022/01/07 08:49:39;;;;;;;1.35;0.90;;;3.80;99.90;;;;;;5052870;28;20228;-75
2022/01/07 08:52:07;;;;;;;1.02;0.90;;;3.90;99.90;;;;;;5054061;28;20206;-74
2022/01/07 08:54:34;;;;;;;0.75;0.75;;;3.90;99.90;;;;;;5055349;28;20201;-74
2022/01/07 08:59:27;;;;;;;1.20;1.05;;;4.10;99.90;;;;;;5117092;22;20316;-75
2022/01/07 09:01:54;;;;;;;0.70;0.50;;;4.10;99.90;;;;;;5070199;28;20685;-75
2022/01/07 09:04:20;;;;;;;0.75;0.75;;;4.10;99.90;;;;;;5071391;28;20262;-75
2022/01/07 09:06:47;;;;;;;1.50;1.00;;;4.20;99.90;;;;;;5071148;28;20237;-76
2022/01/07 09:09:15;;;;;;;0.50;0.50;;;4.20;99.90;;;;;;5059260;28;20729;-75
2022/01/07 09:11:42;;;;;;;1.17;1.08;;;4.20;99.90;;;;;;5060860;28;20247;-74
2022/01/07 09:14:08;;;;;;;1.88;1.27;;;4.30;99.90;;;;;;5066608;28;20221;-74
2022/01/07 09:16:35;;;;;;;1.08;0.85;;;4.30;99.90;;;;;;5067916;28;20279;-75
2022/01/07 09:19:03;;;;;;;0.70;0.68;;;4.30;99.90;;;;;;5067499;28;20237;-75
2022/01/07 09:21:29;;;;;;;0.65;0.65;;;4.40;99.90;;;;;;5068892;28;20200;-75
2022/01/07 09:23:56;;;;;;;0.50;0.50;;;4.40;99.90;;;;;;5067036;28;20200;-76
2022/01/07 09:26:24;;;;;;;1.58;1.40;;;4.30;99.90;;;;;;5061702;28;20214;-75
2022/01/07 09:28:51;;;;;;;1.23;0.80;;;4.40;99.90;;;;;;5065572;28;20259;-75
2022/01/07 09:31:17;;;;;;;1.35;1.23;;;4.40;99.90;;;;;;5067094;28;20201;-75
2022/01/07 09:33:44;;;;;;;1.73;1.38;;;4.40;99.90;;;;;;5064830;28;20198;-72
2022/01/07 09:36:11;;;;;;;2.08;1.48;;;4.40;99.90;;;;;;5063094;28;20208;-75
2022/01/07 09:38:37;;;;;;;1.35;0.60;;;4.40;99.90;;;;;;5059925;28;20221;-74
2022/01/07 09:41:05;;;;;;;1.30;0.90;;;4.40;99.90;;;;;;5061958;28;20315;-74
2022/01/07 09:43:33;;;;;;;0.60;0.50;;;4.40;99.90;;;;;;5065330;28;20446;-74
2022/01/07 09:46:00;;;;;;;0.40;0.40;;;4.40;99.90;;;;;;5060817;28;20448;-74
2022/01/07 09:48:27;;;;;;;1.02;0.63;;;4.40;99.90;;;;;;5065387;28;20304;-75
2022/01/07 09:50:53;;;;;;;1.02;0.57;;;4.40;99.90;;;;;;5060401;28;20210;-74
2022/01/07 09:53:23;;;;;;;0.40;0.40;;;4.40;99.90;;;;;;5065656;28;20197;-74
2022/01/07 09:55:50;;;;;;;0.50;0.43;;;4.40;99.90;;;;;;5064701;28;20197;-74
2022/01/07 09:58:16;;;;;;;0.90;0.80;;;4.40;99.90;;;;;;5064845;28;20286;-75
2022/01/07 10:00:46;;;;;;;0.60;0.40;;;4.40;99.90;;;;;;5049701;28;20260;-74
2022/01/07 10:03:14;;;;;;;1.63;0.68;;;4.40;99.90;;;;;;5065673;28;20274;-74
2022/01/07 10:05:44;;;;;;;2.65;0.55;;;4.40;99.90;;;;;;5073908;28;20448;-74
2022/01/07 10:08:20;;;;;;;0.60;0.50;;;4.40;99.90;;;;;;5074152;28;20387;-74
2022/01/07 10:10:48;;;;;;;1.13;0.93;;;4.30;99.90;;;;;;5066337;28;20205;-74
2022/01/07 10:13:20;;;;;;;0.70;0.50;;;4.30;99.90;;;;;;5073227;28;20251;-75
2022/01/07 10:15:48;;;;;;;2.13;0.88;;;4.20;99.90;;;;;;5068255;28;20220;-74
2022/01/07 10:18:16;;;;;;;0.50;0.50;;;4.20;99.90;;;;;;5056173;28;20312;-76
2022/01/07 10:20:44;;;;;;;0.90;0.52;;;4.20;99.90;;;;;;5061942;28;20197;-73
2022/01/07 10:23:13;;;;;;;0.40;0.40;;;4.30;99.90;;;;;;5064796;28;20225;-74
2022/01/07 10:25:42;;;;;;;0.70;0.70;;;4.30;99.90;;;;;;5058236;28;20205;-74
2022/01/07 10:28:11;;;;;;;0.60;0.50;;;4.50;99.90;;;;;;5068473;28;20690;-75
2022/01/07 10:30:39;;;;;;;1.00;0.47;;;4.60;99.90;;;;;;5061265;28;20743;-74
2022/01/07 10:33:19;;;;;;;0.50;0.50;;;4.70;99.90;;;;;;5063475;28;20259;-74
2022/01/07 10:35:46;;;;;;;0.60;0.50;;;4.80;99.90;;;;;;5065765;28;20312;-74
2022/01/07 10:38:16;;;;;;;0.40;0.40;;;4.90;99.90;;;;;;5064006;28;20304;-74
2022/01/07 10:40:43;;;;;;;0.90;0.52;;;4.90;99.90;;;;;;5070585;28;20285;-74
2022/01/07 10:43:13;;;;;;;1.20;0.95;;;4.90;99.90;;;;;;5060915;28;20205;-74
2022/01/07 10:45:41;;;;;;;0.40;0.30;;;4.90;99.90;;;;;;5068968;28;20210;-74
2022/01/07 10:48:08;;;;;;;0.80;0.47;;;4.90;99.90;;;;;;5063088;28;20226;-74
2022/01/07 10:50:41;;;;;;;0.50;0.40;;;4.90;99.90;;;;;;5059340;28;20530;-73
2022/01/07 10:53:25;;;;;;;1.45;0.60;;;5.00;99.90;;;;;;5056671;28;20197;-73
2022/01/07 10:56:09;;;;;;;0.60;0.50;;;5.00;99.90;;;;;;5052839;28;20295;-74
2022/01/07 10:59:10;;;;;;;0.93;0.40;;;5.00;99.90;;;;;;5060214;28;20584;-73
2022/01/07 11:01:40;;;;;;;1.05;0.65;;;5.10;99.90;;;;;;5069273;28;20293;-73
2022/01/07 11:04:08;;;;;;;0.80;0.80;;;5.20;99.90;;;;;;5068862;28;20197;-73
2022/01/07 11:06:39;;;;;;;0.88;0.70;;;5.10;99.90;;;;;;5069915;28;20196;-73
2022/01/07 11:09:10;;;;;;;0.60;0.60;;;5.10;99.90;;;;;;5056364;28;20312;-73
2022/01/07 11:11:49;;;;;;;0.65;0.50;;;5.20;99.90;;;;;;5059816;28;20206;-73
2022/01/07 11:14:22;;;;;;;0.70;0.70;;;5.20;99.90;;;;;;5061979;28;20197;-73
2022/01/07 11:16:49;;;;;;;0.85;0.70;;;5.40;99.90;;;;;;5062562;28;20194;-73
2022/01/07 11:19:20;;;;;;;0.70;0.70;;;5.60;99.90;;;;;;5062751;28;20229;-73
2022/01/07 11:21:51;;;;;;;0.60;0.60;;;5.80;99.90;;;;;;5074175;28;20682;-73
2022/01/07 11:24:36;;;;;;;1.02;0.82;;;6.00;99.90;;;;;;5062690;28;20598;-73
2022/01/07 11:27:05;;;;;;;0.85;0.85;;;6.30;99.90;;;;;;5070815;28;20200;-73
2022/01/07 11:29:31;;;;;;;0.60;0.60;;;6.40;99.90;;;;;;5072892;28;20197;-73
2022/01/07 11:32:31;;;;;;;0.90;0.60;;;6.50;99.90;;;;;;5072501;28;20262;-73
2022/01/07 11:35:18;;;;;;;0.75;0.75;;;6.60;99.90;;;;;;5067476;28;20202;-75
2022/01/07 11:37:48;;;;;;;1.55;1.10;;;6.60;99.90;;;;;;5053116;28;20238;-73
2022/01/07 11:40:44;;;;;;;0.60;0.60;;;6.50;99.90;;;;;;5068384;28;20286;-75
2022/01/07 11:43:30;;;;;;;1.15;0.68;;;6.40;99.90;;;;;;5056550;28;20231;-73
2022/01/07 11:45:57;;;;;;;1.23;0.70;;;6.40;99.90;;;;;;5067988;28;20278;-73
2022/01/07 11:48:26;;;;;;;0.63;0.60;;;6.50;99.90;;;;;;5059937;28;20320;-73
2022/01/07 11:51:11;;;;;;;1.17;0.77;;;6.60;99.90;;;;;;5063325;28;20265;-76
2022/01/07 11:54:05;;;;;;;0.60;0.50;;;6.60;99.90;;;;;;5058165;28;20198;-75
2022/01/07 11:56:34;;;;;;;0.65;0.65;;;6.50;99.90;;;;;;5058294;28;20233;-75
2022/01/07 11:59:14;;;;;;;1.23;0.95;;;6.40;99.90;;;;;;5060460;28;20248;-73
2022/01/07 12:01:41;;;;;;;0.68;0.60;;;6.30;99.90;;;;;;5068883;28;20201;-73
2022/01/07 12:04:27;;;;;;;0.55;0.55;;;6.20;99.90;;;;;;5065674;28;20217;-71
2022/01/07 12:06:54;;;;;;;0.80;0.80;;;6.20;99.90;;;;;;5069022;28;20202;-73
2022/01/07 12:09:32;;;;;;;0.60;0.50;;;6.10;99.90;;;;;;5060099;28;20422;-72
2022/01/07 12:12:00;;;;;;;0.80;0.63;;;6.00;99.90;;;;;;5064954;28;20224;-73
2022/01/07 12:14:29;;;;;;;1.00;0.93;;;6.10;99.90;;;;;;5069305;28;20208;-72
2022/01/07 12:16:58;;;;;;;0.77;0.63;;;6.20;99.90;;;;;;5067133;28;20209;-71
2022/01/07 12:20:06;;;;;;;1.17;1.08;;;6.20;99.90;;;;;;5064867;28;20259;-72
2022/01/07 12:22:33;;;;;;;0.80;0.73;;;6.30;99.90;;;;;;5062894;28;20217;-71
2022/01/07 12:25:04;;;;;;;1.23;0.93;;;6.40;99.90;;;;;;5062072;28;20855;-72
2022/01/07 12:27:31;;;;;;;1.42;1.08;;;6.40;99.90;;;;;;5066900;28;20217;-73
2022/01/07 12:30:00;;;;;;;1.20;0.93;;;6.30;99.90;;;;;;5064305;28;20213;-72
2022/01/07 12:32:35;;;;;;;4.43;1.33;;;6.30;99.90;;;;;;5067681;28;20702;-72
2022/01/07 12:35:04;;;;;;;2.10;1.30;;;6.20;99.90;;;;;;5068929;28;20238;-72
2022/01/07 12:37:31;;;;;;;1.83;1.30;;;6.20;99.90;;;;;;5068639;28;20590;-73
2022/01/07 12:39:59;;;;;;;4.15;1.13;;;6.10;99.90;;;;;;5063047;28;20228;-71
2022/01/07 12:42:29;;;;;;;2.08;1.15;;;6.10;99.90;;;;;;5058339;28;20258;-72
2022/01/07 12:44:58;;;;;;;0.95;0.85;;;6.10;99.90;;;;;;5074476;28;20239;-72
2022/01/07 12:47:27;;;;;;;0.70;0.68;;;6.10;99.90;;;;;;5082136;28;20271;-72
2022/01/07 12:49:56;;;;;;;0.98;0.82;;;6.20;99.90;;;;;;5081402;28;20228;-72
2022/01/07 12:52:25;;;;;;;3.03;1.55;;;6.20;99.90;;;;;;5072116;28;20201;-71
2022/01/07 12:54:57;;;;;;;0.82;0.68;;;6.20;99.90;;;;;;5073854;28;20205;-73
2022/01/07 12:57:28;;;;;;;2.28;0.80;;;6.20;99.90;;;;;;5077887;28;20585;-76
2022/01/07 13:00:06;;;;;;;2.45;1.30;;;6.20;99.90;;;;;;5072771;28;20225;-74
2022/01/07 13:02:33;;;;;;;2.80;1.40;;;6.20;99.90;;;;;;5072719;28;20209;-75
2022/01/07 13:05:14;;;;;;;0.80;0.70;;;6.30;99.90;;;;;;5070214;28;20273;-72
2022/01/07 13:07:42;;;;;;;1.73;1.60;;;6.30;99.90;;;;;;5069442;28;20335;-73
2022/01/07 13:10:09;;;;;;;2.55;1.17;;;6.30;99.90;;;;;;5064857;28;20202;-76
2022/01/07 13:12:38;;;;;;;1.20;1.10;;;6.20;99.90;;;;;;5066024;28;20272;-72